Time;durP1;ratioP1;P1;durP2;ratioP2;P2;SDS_P1;SDS_P2;PMS_P1;PMS_P2;Temp;Humidity;BMP_temperature;BMP_pressure;BME280_temperature;BME280_humidity;BME280_pressure;Samples;Min_cycle;Max_cycle;Signal;HPM_P1;HPM_P2
2023/03/30 00:02:29;;;;;;;25.88;14.48;;;;;;;13.52;71.12;98535.28;4938618;29;20107;-73
2023/03/30 00:05:01;;;;;;;28.93;15.10;;;;;;;13.76;70.82;98539.19;4907713;29;20397;-73
2023/03/30 00:07:30;;;;;;;26.73;14.55;;;;;;;13.83;70.61;98535.50;4923773;29;20073;-73
2023/03/30 00:09:57;;;;;;;29.30;15.70;;;;;;;13.42;70.97;98524.19;4900475;29;20091;-73
2023/03/30 00:12:23;;;;;;;31.35;15.38;;;;;;;13.46;70.54;98528.09;4885203;29;20066;-73
2023/03/30 00:14:49;;;;;;;29.10;15.77;;;;;;;13.47;70.51;98529.72;4888137;29;20070;-73
2023/03/30 00:17:16;;;;;;;31.45;16.42;;;;;;;13.44;70.62;98530.13;4888502;29;20063;-73
2023/03/30 00:19:42;;;;;;;33.67;16.42;;;;;;;13.46;69.72;98536.09;4884297;29;20063;-73
2023/03/30 00:22:08;;;;;;;32.00;16.25;;;;;;;13.64;69.73;98533.63;4866245;29;20083;-75
2023/03/30 00:24:35;;;;;;;29.98;16.13;;;;;;;13.93;69.78;98538.56;4866263;29;20056;-75
2023/03/30 00:27:04;;;;;;;30.40;16.05;;;;;;;13.84;69.32;98529.13;4881757;29;20475;-74
2023/03/30 00:29:30;;;;;;;33.45;16.27;;;;;;;13.55;68.94;98525.03;4912278;29;20469;-75
2023/03/30 00:31:58;;;;;;;29.98;15.35;;;;;;;13.65;69.39;98523.78;4911722;29;20056;-75
2023/03/30 00:34:24;;;;;;;28.80;16.00;;;;;;;13.66;69.03;98525.41;4917264;29;20376;-75
2023/03/30 00:36:52;;;;;;;30.00;17.02;;;;;;;13.43;68.87;98505.31;4885683;29;20055;-74
2023/03/30 00:39:21;;;;;;;33.95;18.20;;;;;;;13.47;68.84;98513.72;4917097;29;20060;-75
2023/03/30 00:41:48;;;;;;;32.78;17.33;;;;;;;13.61;69.32;98522.56;4904904;29;20137;-74
2023/03/30 00:44:51;;;;;;;32.65;17.50;;;;;;;14.16;69.74;98540.84;4918821;29;20049;-73
2023/03/30 00:47:19;;;;;;;30.30;16.38;;;;;;;13.52;69.45;98535.28;4938088;29;20518;-73
2023/03/30 00:49:44;;;;;;;41.55;17.95;;;;;;;13.30;70.34;98542.59;4946373;28;20097;-73
2023/03/30 00:52:11;;;;;;;39.70;19.80;;;;;;;13.41;70.33;98534.03;4966905;28;20120;-75
2023/03/30 00:54:38;;;;;;;38.80;20.08;;;;;;;13.47;70.77;98530.53;4976552;28;20061;-74
2023/03/30 00:57:05;;;;;;;45.50;20.42;;;;;;;13.59;70.26;98528.91;4944177;28;20119;-74
2023/03/30 00:59:31;;;;;;;45.25;19.88;;;;;;;13.24;69.59;98535.41;4944310;28;20054;-74
2023/03/30 01:01:59;;;;;;;51.45;22.10;;;;;;;13.41;69.93;98523.34;4960256;28;20116;-74
2023/03/30 01:04:24;;;;;;;50.42;21.92;;;;;;;13.28;69.81;98531.31;4944005;28;20501;-74
2023/03/30 01:06:51;;;;;;;50.00;21.27;;;;;;;13.46;70.09;98525.41;4944508;28;20120;-74
2023/03/30 01:09:17;;;;;;;48.00;21.08;;;;;;;13.39;69.81;98524.59;4944424;28;20090;-74
2023/03/30 01:11:44;;;;;;;43.70;20.85;;;;;;;13.48;69.14;98526.84;4944044;28;20073;-74
2023/03/30 01:14:14;;;;;;;44.33;19.90;;;;;;;13.75;69.09;98534.88;4960099;28;20062;-75
2023/03/30 01:16:47;;;;;;;43.13;18.75;;;;;;;14.09;69.05;98529.31;4960212;28;20069;-74
2023/03/30 01:19:52;;;;;;;35.67;18.42;;;;;;;14.28;67.53;98532.03;4993745;28;20107;-74
2023/03/30 01:22:30;;;;;;;32.47;17.15;;;;;;;13.64;67.14;98541.63;4979257;28;20068;-74
2023/03/30 01:25:37;;;;;;;32.47;16.73;;;;;;;13.95;67.81;98541.03;5001498;28;20049;-74
2023/03/30 01:28:19;;;;;;;33.42;17.58;;;;;;;14.20;67.34;98550.06;4921157;29;20050;-73
2023/03/30 01:31:10;;;;;;;31.20;14.95;;;;;;;14.11;66.55;98554.81;4937259;29;20055;-74
2023/03/30 01:33:56;;;;;;;28.30;14.85;;;;;;;13.83;67.02;98546.19;5012531;28;20089;-74
2023/03/30 01:37:06;;;;;;;24.75;13.43;;;;;;;13.93;66.85;98567.13;4982472;28;20040;-74
2023/03/30 01:39:55;;;;;;;23.35;13.23;;;;;;;14.11;65.75;98561.97;4937229;29;20465;-73
2023/03/30 01:42:40;;;;;;;20.40;11.43;;;;;;;14.05;65.28;98571.66;4906342;29;20086;-74
2023/03/30 01:45:36;;;;;;;21.08;11.43;;;;;;;13.95;65.41;98575.72;4981026;28;20046;-74
2023/03/30 01:48:44;;;;;;;13.95;8.70;;;;;;;13.76;64.63;98566.69;4998218;28;20468;-75
2023/03/30 01:51:16;;;;;;;15.27;9.93;;;;;;;13.72;64.61;98572.63;4927376;28;20059;-74
2023/03/30 01:53:55;;;;;;;18.60;8.80;;;;;;;13.89;63.56;98580.06;4940167;28;20055;-74
2023/03/30 01:56:21;;;;;;;16.95;8.88;;;;;;;13.34;62.95;98586.53;4972413;28;20082;-74
2023/03/30 01:59:15;;;;;;;13.18;8.40;;;;;;;13.98;62.46;98588.66;4959292;28;20471;-72
2023/03/30 02:01:42;;;;;;;12.40;8.07;;;;;;;13.56;62.43;98585.34;4941232;28;20046;-72
2023/03/30 02:04:09;;;;;;;9.82;6.70;;;;;;;13.40;62.01;98585.72;4927328;28;20046;-71
2023/03/30 02:06:40;;;;;;;9.75;6.88;;;;;;;13.44;62.75;98586.13;4943449;28;20144;-74
2023/03/30 02:09:10;;;;;;;13.32;7.65;;;;;;;13.39;62.70;98594.72;4976069;28;20450;-74
2023/03/30 02:11:36;;;;;;;11.68;7.40;;;;;;;13.26;63.09;98594.72;4975509;28;20823;-74
2023/03/30 02:14:04;;;;;;;10.18;7.32;;;;;;;13.21;62.31;98601.66;4952141;29;20061;-75
2023/03/30 02:16:41;;;;;;;10.43;6.32;;;;;;;13.64;62.31;98603.00;4955640;28;20050;-75
2023/03/30 02:19:08;;;;;;;14.20;7.32;;;;;;;13.34;61.53;98602.53;4955766;28;20498;-74
2023/03/30 02:21:34;;;;;;;9.52;6.43;;;;;;;13.14;61.23;98601.66;4971648;28;20070;-75
2023/03/30 02:24:04;;;;;;;12.15;6.63;;;;;;;13.28;62.18;98603.31;4955481;28;20183;-75
2023/03/30 02:26:30;;;;;;;11.57;6.10;;;;;;;13.20;61.75;98603.50;4955406;28;20046;-74
2023/03/30 02:28:56;;;;;;;10.85;6.70;;;;;;;13.21;61.37;98604.31;4955564;28;20096;-74
2023/03/30 02:31:22;;;;;;;9.40;5.75;;;;;;;12.99;61.05;98608.09;4955597;28;20069;-74
2023/03/30 02:34:20;;;;;;;9.77;5.82;;;;;;;13.57;61.42;98597.69;4971378;28;20058;-73
2023/03/30 02:36:46;;;;;;;10.18;6.18;;;;;;;12.83;60.67;98598.59;4939502;28;20047;-74
2023/03/30 02:39:20;;;;;;;9.98;6.00;;;;;;;13.44;60.61;98605.63;4939422;28;20062;-74
2023/03/30 02:42:11;;;;;;;8.48;5.72;;;;;;;13.69;60.48;98605.88;4939457;28;20058;-74
2023/03/30 02:45:14;;;;;;;10.63;5.75;;;;;;;13.71;59.88;98613.69;4945867;28;20054;-74
2023/03/30 02:48:04;;;;;;;9.23;6.07;;;;;;;13.59;59.53;98608.16;4962009;28;20074;-74
2023/03/30 02:50:33;;;;;;;9.40;5.40;;;;;;;13.37;58.94;98606.63;5011266;28;20049;-74
2023/03/30 02:53:07;;;;;;;9.55;5.78;;;;;;;13.37;59.68;98606.63;4979346;28;20041;-74
2023/03/30 02:55:47;;;;;;;8.25;5.55;;;;;;;13.42;59.95;98610.34;4995679;28;20046;-73
2023/03/30 02:58:31;;;;;;;7.75;5.53;;;;;;;13.23;60.25;98610.28;4996062;28;20391;-77
2023/03/30 03:01:19;;;;;;;8.27;5.78;;;;;;;13.34;60.64;98607.88;5011223;28;20041;-76
2023/03/30 03:03:57;;;;;;;7.57;5.70;;;;;;;13.06;60.12;98608.97;4983029;28;20135;-74
2023/03/30 03:06:25;;;;;;;8.35;6.00;;;;;;;13.11;60.14;98612.72;4983687;28;20558;-77
2023/03/30 03:08:54;;;;;;;9.10;5.95;;;;;;;13.13;60.07;98615.16;4967273;28;20046;-76
2023/03/30 03:11:23;;;;;;;12.88;6.22;;;;;;;12.93;59.40;98614.22;4967465;28;20092;-78
2023/03/30 03:13:49;;;;;;;10.07;6.28;;;;;;;12.99;59.65;98616.91;4982158;28;20057;-78
2023/03/30 03:16:16;;;;;;;8.65;5.80;;;;;;;13.21;59.84;98621.16;4966088;28;20061;-78
2023/03/30 03:19:05;;;;;;;11.60;6.30;;;;;;;12.99;58.92;98634.75;4989345;28;20046;-77
2023/03/30 03:21:31;;;;;;;11.05;6.32;;;;;;;13.01;59.01;98625.56;4970094;28;20103;-78
2023/03/30 03:23:59;;;;;;;8.45;5.70;;;;;;;12.90;58.96;98631.41;4967189;28;20033;-78
2023/03/30 03:26:43;;;;;;;9.98;5.97;;;;;;;12.87;58.96;98641.66;5005188;28;20138;-74
2023/03/30 03:29:09;;;;;;;8.48;5.78;;;;;;;12.91;58.68;98635.75;4984335;28;20138;-78
2023/03/30 03:31:35;;;;;;;9.88;6.35;;;;;;;12.94;58.36;98639.84;5000422;28;20399;-78
2023/03/30 03:34:05;;;;;;;12.35;6.57;;;;;;;13.08;57.66;98639.75;4985522;28;20037;-75
2023/03/30 03:36:53;;;;;;;9.48;5.93;;;;;;;13.15;57.36;98635.28;5001853;28;20048;-74
2023/03/30 03:39:22;;;;;;;9.68;6.28;;;;;;;12.98;57.08;98638.41;5001145;28;20064;-77
2023/03/30 03:41:50;;;;;;;14.13;5.47;;;;;;;12.97;56.32;98640.28;4984457;28;20129;-73
2023/03/30 03:44:19;;;;;;;12.38;6.18;;;;;;;12.84;57.01;98640.19;5033530;28;20049;-72
2023/03/30 03:46:45;;;;;;;8.05;5.18;;;;;;;12.74;56.76;98629.09;5001424;28;20040;-74
2023/03/30 03:49:11;;;;;;;9.00;5.95;;;;;;;12.76;56.82;98653.66;4982851;28;20041;-73
2023/03/30 03:51:40;;;;;;;9.40;5.78;;;;;;;12.76;57.40;98658.19;4998645;28;20045;-73
2023/03/30 03:54:06;;;;;;;11.77;6.28;;;;;;;12.68;57.91;98661.84;5017440;28;20387;-74
2023/03/30 03:56:33;;;;;;;10.30;5.82;;;;;;;12.72;57.46;98657.75;4985152;28;20154;-72
2023/03/30 03:59:01;;;;;;;8.32;5.47;;;;;;;12.75;57.19;98656.53;5000233;28;20041;-74
2023/03/30 04:01:28;;;;;;;8.95;5.50;;;;;;;12.46;57.33;98668.22;5018124;28;20068;-75
2023/03/30 04:03:54;;;;;;;8.63;5.60;;;;;;;12.66;57.29;98666.53;5017745;28;20432;-75
2023/03/30 04:06:20;;;;;;;13.05;6.18;;;;;;;12.71;57.37;98666.78;5017529;28;20152;-75
2023/03/30 04:08:46;;;;;;;8.85;5.78;;;;;;;12.60;57.34;98671.81;5017433;28;20128;-75
2023/03/30 04:11:35;;;;;;;9.80;6.60;;;;;;;12.59;57.76;98675.50;5015413;28;20064;-74
2023/03/30 04:14:20;;;;;;;10.85;6.57;;;;;;;12.55;57.72;98675.03;4995472;28;20109;-74
2023/03/30 04:17:11;;;;;;;11.93;6.13;;;;;;;12.46;58.09;98662.91;5027239;28;20048;-75
2023/03/30 04:19:56;;;;;;;10.68;5.97;;;;;;;12.42;58.63;98664.31;5042981;28;20496;-77
2023/03/30 04:22:42;;;;;;;8.77;5.82;;;;;;;12.47;58.45;98663.72;5013803;28;20067;-77
2023/03/30 04:25:27;;;;;;;10.52;5.60;;;;;;;12.55;58.11;98667.06;5042869;28;20041;-75
2023/03/30 04:28:20;;;;;;;10.50;6.22;;;;;;;12.61;58.25;98658.28;5020380;28;20049;-74
2023/03/30 04:30:46;;;;;;;12.05;5.85;;;;;;;12.49;58.50;98662.50;5040643;28;20044;-74
2023/03/30 04:33:49;;;;;;;8.32;5.88;;;;;;;12.30;59.44;98663.16;5044283;28;20048;-74
2023/03/30 04:36:36;;;;;;;10.48;6.63;;;;;;;12.31;59.72;98664.00;5052972;28;20056;-74
2023/03/30 04:39:29;;;;;;;12.05;6.93;;;;;;;12.49;59.09;98664.34;5041362;28;20125;-75
2023/03/30 04:42:36;;;;;;;10.88;6.25;;;;;;;12.57;58.22;98664.19;5029311;28;20044;-74
2023/03/30 04:45:29;;;;;;;9.48;5.90;;;;;;;12.97;58.08;98660.78;5059585;28;20048;-73
2023/03/30 04:47:58;;;;;;;9.32;5.85;;;;;;;12.78;57.38;98648.16;5039180;28;20044;-73
2023/03/30 04:50:44;;;;;;;12.05;6.03;;;;;;;13.23;57.43;98661.78;5041919;28;20040;-73
2023/03/30 04:53:28;;;;;;;10.90;6.05;;;;;;;12.85;56.31;98663.19;5055555;28;20039;-74
2023/03/30 04:56:22;;;;;;;11.38;5.82;;;;;;;12.83;56.01;98651.06;5030781;28;20043;-74
2023/03/30 04:59:10;;;;;;;11.57;5.32;;;;;;;12.97;55.26;98650.94;5026030;28;20186;-72
2023/03/30 05:01:52;;;;;;;13.30;5.80;;;;;;;12.98;55.00;98660.56;5041911;28;20359;-74
2023/03/30 05:04:47;;;;;;;10.30;5.82;;;;;;;13.12;54.42;98670.31;4995754;28;20081;-75
2023/03/30 05:07:45;;;;;;;9.02;5.63;;;;;;;13.15;53.62;98661.94;4992886;28;20050;-74
2023/03/30 05:10:30;;;;;;;8.00;5.43;;;;;;;13.06;54.63;98668.44;4963064;28;20560;-74
2023/03/30 05:13:15;;;;;;;7.13;5.10;;;;;;;13.14;53.73;98652.31;4979407;28;20046;-75
2023/03/30 05:15:55;;;;;;;8.93;5.57;;;;;;;13.35;53.35;98668.19;4931974;28;20508;-75
2023/03/30 05:18:50;;;;;;;10.50;5.30;;;;;;;13.26;52.67;98677.38;4995317;28;20058;-74
2023/03/30 05:21:36;;;;;;;10.30;5.03;;;;;;;13.42;52.28;98678.88;4965822;28;20060;-74
2023/03/30 05:24:25;;;;;;;16.73;4.80;;;;;;;13.40;51.83;98684.41;4985301;28;20061;-74
2023/03/30 05:27:03;;;;;;;7.03;4.95;;;;;;;13.19;52.00;98686.34;4980432;28;20180;-74
2023/03/30 05:29:52;;;;;;;6.30;4.32;;;;;;;13.33;52.38;98688.06;4991022;28;20108;-74
2023/03/30 05:32:33;;;;;;;8.77;4.80;;;;;;;13.14;52.93;98694.13;4983479;28;20045;-74
2023/03/30 05:35:17;;;;;;;12.07;5.00;;;;;;;13.12;52.48;98704.97;4997721;28;20057;-73
2023/03/30 05:38:04;;;;;;;7.43;4.78;;;;;;;13.46;51.83;98696.13;4981685;28;20048;-74
2023/03/30 05:40:59;;;;;;;8.70;4.00;;;;;;;13.34;50.56;98698.53;5008285;28;20135;-73
2023/03/30 05:43:48;;;;;;;7.95;3.97;;;;;;;13.40;50.29;98705.75;5019546;28;20068;-74
2023/03/30 05:46:37;;;;;;;5.22;3.92;;;;;;;13.42;49.34;98703.69;5049753;28;20476;-74
2023/03/30 05:49:21;;;;;;;5.97;3.85;;;;;;;13.56;48.93;98701.91;5073042;28;20084;-74
2023/03/30 05:52:10;;;;;;;4.93;3.75;;;;;;;13.65;49.04;98710.56;5028224;28;20148;-73
2023/03/30 05:55:00;;;;;;;5.30;3.95;;;;;;;13.22;49.84;98704.63;5029231;28;20056;-74
2023/03/30 05:57:49;;;;;;;8.00;3.88;;;;;;;13.33;49.45;98715.53;5035548;28;20056;-74
2023/03/30 06:00:35;;;;;;;6.30;3.80;;;;;;;13.48;49.10;98710.88;5043022;28;20174;-73
2023/03/30 06:03:10;;;;;;;5.70;3.78;;;;;;;13.96;48.67;98708.19;5039883;28;20051;-74
2023/03/30 06:05:38;;;;;;;7.32;4.20;;;;;;;13.59;48.98;98723.66;5022225;28;20036;-74
2023/03/30 06:08:06;;;;;;;7.32;4.30;;;;;;;12.93;50.52;98710.16;5055342;28;20182;-74
2023/03/30 06:10:36;;;;;;;7.40;4.20;;;;;;;12.90;51.46;98713.22;5038784;28;20094;-74
2023/03/30 06:13:04;;;;;;;7.03;4.25;;;;;;;13.19;50.70;98721.03;5038826;28;20052;-74
2023/03/30 06:15:41;;;;;;;7.57;4.15;;;;;;;13.11;50.11;98719.34;5023442;28;20060;-74
2023/03/30 06:18:10;;;;;;;8.00;3.90;;;;;;;13.41;50.10;98722.56;5006309;28;20502;-73
2023/03/30 06:20:41;;;;;;;6.50;3.97;;;;;;;13.34;49.04;98724.38;5039140;28;20048;-74
2023/03/30 06:23:08;;;;;;;7.25;3.97;;;;;;;13.01;48.79;98707.34;5038631;28;20113;-72
2023/03/30 06:25:35;;;;;;;6.35;3.90;;;;;;;13.22;49.17;98720.63;5055333;28;20044;-73
2023/03/30 06:28:02;;;;;;;6.65;4.40;;;;;;;13.34;48.96;98730.53;5021931;28;20136;-74
2023/03/30 06:30:28;;;;;;;5.97;4.00;;;;;;;13.59;48.18;98723.66;5005362;28;20064;-73
2023/03/30 06:32:59;;;;;;;;;;;;;;;14.43;46.56;98724.09;5023842;28;20044;-73
2023/03/30 06:35:34;;;;;;;9.18;3.53;;;;;;;13.77;46.47;98727.63;5024333;28;20366;-73
2023/03/30 06:38:03;;;;;;;6.25;3.50;;;;;;;13.94;46.04;98723.56;5054794;28;20047;-74
2023/03/30 06:40:29;;;;;;;4.50;2.65;;;;;;;14.01;45.41;98729.78;5021811;28;20052;-73
2023/03/30 06:42:57;;;;;;;4.90;2.90;;;;;;;14.17;45.25;98732.06;5005925;28;20059;-73
2023/03/30 06:45:34;;;;;;;4.53;3.30;;;;;;;14.38;44.90;98731.91;5023177;28;20471;-73
2023/03/30 06:47:59;;;;;;;5.25;2.90;;;;;;;14.73;44.13;98728.84;5054722;28;20045;-73
2023/03/30 06:50:25;;;;;;;4.05;2.97;;;;;;;15.07;43.11;98717.06;5021523;28;20048;-73
2023/03/30 06:52:51;;;;;;;4.55;3.10;;;;;;;15.26;42.75;98713.53;5021263;28;20462;-74
2023/03/30 06:55:18;;;;;;;7.55;3.20;;;;;;;15.20;42.02;98717.88;5005654;28;20482;-74
2023/03/30 06:57:45;;;;;;;5.22;3.30;;;;;;;15.25;41.49;98720.72;5005403;28;20033;-73
2023/03/30 07:00:12;;;;;;;3.47;2.72;;;;;;;15.59;41.72;98722.28;5037999;28;20044;-73
2023/03/30 07:02:41;;;;;;;3.72;3.00;;;;;;;16.44;40.31;98722.69;5021496;28;20037;-73
2023/03/30 07:05:30;;;;;;;4.32;2.50;;;;;;;15.93;39.25;98721.13;5035081;28;20899;-74
2023/03/30 07:08:15;;;;;;;5.05;3.00;;;;;;;16.62;39.42;98716.59;5026406;28;20037;-74
2023/03/30 07:10:47;;;;;;;4.32;2.67;;;;;;;16.45;38.60;98715.47;5021974;28;20041;-74
2023/03/30 07:13:15;;;;;;;4.13;2.97;;;;;;;16.20;37.97;98715.41;5021201;28;20083;-74
2023/03/30 07:15:42;;;;;;;3.22;2.60;;;;;;;16.33;37.89;98715.31;5037498;28;20139;-74
2023/03/30 07:18:08;;;;;;;3.95;2.45;;;;;;;15.98;37.70;98716.78;5021659;28;20131;-74
2023/03/30 07:20:34;;;;;;;3.08;2.13;;;;;;;16.01;37.37;98713.66;5004898;28;20051;-74
2023/03/30 07:23:07;;;;;;;6.40;2.40;;;;;;;15.66;37.75;98714.25;5039226;28;20049;-75
2023/03/30 07:25:34;;;;;;;3.88;2.47;;;;;;;15.54;38.38;98714.09;5021082;28;20048;-74
2023/03/30 07:28:09;;;;;;;3.70;2.80;;;;;;;15.61;38.77;98708.69;5007680;28;20045;-75
2023/03/30 07:30:35;;;;;;;5.38;2.50;;;;;;;15.60;39.55;98715.94;5004811;28;20050;-75
2023/03/30 07:33:05;;;;;;;7.95;2.55;;;;;;;15.55;39.00;98707.72;5037891;28;20054;-76
2023/03/30 07:35:31;;;;;;;2.90;2.28;;;;;;;15.38;38.10;98716.41;5021171;28;20501;-75
2023/03/30 07:37:59;;;;;;;3.38;2.50;;;;;;;15.41;38.54;98716.00;5054102;28;20040;-75
2023/03/30 07:40:25;;;;;;;3.97;2.53;;;;;;;15.46;38.65;98716.19;5037326;28;20541;-74
2023/03/30 07:42:51;;;;;;;3.25;2.25;;;;;;;15.33;38.45;98727.72;5004726;28;20048;-75
2023/03/30 07:45:18;;;;;;;4.75;2.60;;;;;;;15.23;38.47;98722.81;5037448;28;20105;-74
2023/03/30 07:47:44;;;;;;;2.67;2.15;;;;;;;15.32;38.60;98728.75;5004852;28;20036;-74
2023/03/30 07:50:10;;;;;;;6.00;2.63;;;;;;;15.38;37.93;98711.06;5024395;28;20067;-74
2023/03/30 07:52:36;;;;;;;7.47;2.70;;;;;;;15.32;38.64;98728.75;5040834;28;20097;-75
2023/03/30 07:55:03;;;;;;;3.50;2.40;;;;;;;15.34;38.65;98726.69;5057424;28;20045;-74
2023/03/30 07:57:39;;;;;;;2.80;2.17;;;;;;;15.15;38.32;98730.22;5042460;28;20110;-75
2023/03/30 08:00:07;;;;;;;3.45;2.20;;;;;;;15.22;38.62;98731.84;5040919;28;20064;-75
2023/03/30 08:02:43;;;;;;;4.65;2.45;;;;;;;15.04;38.31;98720.16;5057627;28;20055;-74
2023/03/30 08:05:14;;;;;;;;;;;;;;;15.82;38.09;98733.31;5025470;28;20098;-72
2023/03/30 08:07:56;;;;;;;2.58;2.38;;;;;;;15.27;38.41;98734.72;5043028;28;20362;-75
2023/03/30 08:10:28;;;;;;;3.70;2.30;;;;;;;15.24;38.30;98737.81;5009730;28;20482;-75
2023/03/30 08:12:53;;;;;;;3.72;2.10;;;;;;;15.27;38.18;98735.78;5024070;28;20040;-75
2023/03/30 08:15:20;;;;;;;4.78;2.03;;;;;;;15.45;37.92;98747.50;5024682;28;20056;-74
2023/03/30 08:17:46;;;;;;;2.45;1.90;;;;;;;15.37;37.90;98733.47;5040757;28;20043;-75
2023/03/30 08:20:12;;;;;;;2.22;1.73;;;;;;;15.27;38.01;98736.56;5024155;28;20044;-75
2023/03/30 08:22:38;;;;;;;2.63;2.03;;;;;;;15.23;38.27;98735.34;5023897;28;20041;-75
2023/03/30 08:25:04;;;;;;;6.55;2.33;;;;;;;14.74;38.91;98727.81;5023736;28;20067;-75
2023/03/30 08:27:30;;;;;;;5.45;2.40;;;;;;;14.56;39.48;98735.63;5057166;28;20040;-74
2023/03/30 08:29:56;;;;;;;3.17;1.98;;;;;;;14.72;39.79;98735.22;5074481;28;20048;-75
2023/03/30 08:32:22;;;;;;;3.70;2.08;;;;;;;14.82;39.03;98735.63;5023543;28;20131;-75
2023/03/30 08:34:49;;;;;;;3.80;1.90;;;;;;;14.97;38.95;98744.25;5024620;28;20044;-75
2023/03/30 08:37:15;;;;;;;3.88;2.22;;;;;;;15.12;38.32;98742.19;5023996;28;20036;-74
2023/03/30 08:39:41;;;;;;;6.05;1.60;;;;;;;15.38;37.53;98740.47;5040920;28;20147;-75
2023/03/30 08:42:39;;;;;;;3.45;1.90;;;;;;;15.06;38.04;98739.50;5057006;28;20045;-75
2023/03/30 08:45:08;;;;;;;1.30;1.20;;;;;;;14.19;39.22;98746.84;5023755;28;20036;-75
2023/03/30 08:47:37;;;;;;;3.00;1.70;;;;;;;14.52;39.83;98731.72;5040375;28;20170;-76
2023/03/30 08:50:13;;;;;;;1.92;1.20;;;;;;;15.27;38.81;98739.25;5040025;28;20032;-75
2023/03/30 08:52:40;;;;;;;4.03;1.55;;;;;;;15.03;37.98;98738.09;5023191;28;20041;-75
2023/03/30 08:55:23;;;;;;;2.50;1.45;;;;;;;15.61;37.80;98719.41;5074052;28;20241;-75
2023/03/30 08:58:01;;;;;;;3.50;1.77;;;;;;;15.82;37.87;98724.50;5040209;28;20537;-74
2023/03/30 09:00:36;;;;;;;4.70;2.22;;;;;;;15.96;37.88;98724.19;5055305;28;20041;-76
2023/03/30 09:03:23;;;;;;;3.33;1.95;;;;;;;16.06;37.45;98723.72;5039695;28;20056;-75
2023/03/30 09:05:57;;;;;;;4.97;2.00;;;;;;;15.83;37.78;98724.28;5022991;28;20068;-77
2023/03/30 09:08:27;;;;;;;5.10;1.80;;;;;;;15.50;38.33;98720.09;5039697;28;20079;-76
2023/03/30 09:11:06;;;;;;;4.20;1.70;;;;;;;15.52;38.02;98726.03;5040203;28;20059;-75
2023/03/30 09:13:34;;;;;;;2.58;1.60;;;;;;;15.21;37.90;98732.06;5039461;28;20048;-74
2023/03/30 09:16:13;;;;;;;1.85;1.30;;;;;;;15.14;37.97;98734.75;5056188;28;20063;-75
2023/03/30 09:18:40;;;;;;;3.53;1.40;;;;;;;14.82;38.65;98737.47;5055935;28;20044;-75
2023/03/30 09:21:09;;;;;;;1.50;1.40;;;;;;;14.69;39.48;98726.78;5039214;28;20098;-75
2023/03/30 09:23:38;;;;;;;3.47;1.35;;;;;;;14.86;39.60;98749.41;5039723;28;20109;-75
2023/03/30 09:26:28;;;;;;;1.55;1.35;;;;;;;14.91;39.30;98755.75;5039478;28;20048;-75
2023/03/30 09:29:25;;;;;;;1.55;1.15;;;;;;;14.99;39.50;98754.75;5039143;28;20041;-74
2023/03/30 09:32:12;;;;;;;1.75;1.60;;;;;;;14.94;39.42;98759.88;5041866;28;20064;-74
2023/03/30 09:34:45;;;;;;;1.20;1.10;;;;;;;14.78;39.86;98761.13;5039352;28;20059;-74
2023/03/30 09:37:17;;;;;;;2.67;1.15;;;;;;;14.49;39.77;98760.69;5055355;28;20040;-75
2023/03/30 09:39:44;;;;;;;2.75;1.10;;;;;;;14.28;39.97;98744.84;5022970;28;20391;-74
2023/03/30 09:42:41;;;;;;;1.77;1.35;;;;;;;14.69;40.16;98764.19;5055774;28;20052;-75
2023/03/30 09:45:18;;;;;;;2.17;1.60;;;;;;;14.59;40.50;98769.94;5038587;28;20117;-74
2023/03/30 09:47:44;;;;;;;2.40;1.80;;;;;;;13.97;40.77;98769.38;5022350;28;20131;-74
2023/03/30 09:50:21;;;;;;;5.03;1.70;;;;;;;14.46;41.18;98780.63;5038795;28;20517;-74
2023/03/30 09:52:58;;;;;;;3.20;1.63;;;;;;;14.66;41.02;98769.97;5055577;28;20052;-74
2023/03/30 09:55:26;;;;;;;2.10;1.77;;;;;;;13.99;41.85;98767.31;5059838;28;20049;-73
2023/03/30 09:57:53;;;;;;;4.72;1.40;;;;;;;13.98;41.66;98778.19;5054820;28;20094;-74
2023/03/30 10:00:31;;;;;;;2.28;1.50;;;;;;;14.33;41.94;98775.25;5055500;28;20036;-75
2023/03/30 10:03:05;;;;;;;2.58;1.85;;;;;;;13.81;43.29;98768.94;5038301;28;20067;-71
2023/03/30 10:05:37;;;;;;;2.05;1.70;;;;;;;13.99;43.39;98769.19;5041881;28;20094;-72
2023/03/30 10:08:18;;;;;;;4.20;1.70;;;;;;;14.27;42.95;98757.38;5039415;28;20491;-73
2023/03/30 10:10:44;;;;;;;3.85;1.60;;;;;;;14.13;42.34;98768.22;5038278;28;20084;-74
2023/03/30 10:13:15;;;;;;;4.63;1.75;;;;;;;14.51;41.84;98761.31;5037917;28;20063;-74
2023/03/30 10:15:44;;;;;;;3.95;2.00;;;;;;;14.50;41.56;98778.38;5005368;28;20082;-72
2023/03/30 10:18:39;;;;;;;3.13;2.00;;;;;;;14.77;41.58;98778.19;5054946;28;20127;-72
2023/03/30 10:21:13;;;;;;;2.83;2.47;;;;;;;14.01;42.29;98769.81;5021741;28;20044;-73
2023/03/30 10:23:41;;;;;;;12.50;2.95;;;;;;;14.10;42.05;98764.06;5037590;28;20075;-72
2023/03/30 10:26:29;;;;;;;6.70;2.50;;;;;;;14.36;42.63;98769.50;5054379;28;20040;-72
2023/03/30 10:29:00;;;;;;;4.88;2.90;;;;;;;14.25;42.45;98769.28;5038140;28;20055;-72
2023/03/30 10:31:26;;;;;;;5.13;2.00;;;;;;;14.36;42.53;98788.19;5037883;28;20055;-72
2023/03/30 10:33:58;;;;;;;9.98;2.60;;;;;;;14.51;42.42;98783.53;5072150;28;20059;-71
2023/03/30 10:36:37;;;;;;;13.57;2.78;;;;;;;14.51;42.90;98794.22;5020931;28;20135;-73
2023/03/30 10:39:12;;;;;;;9.55;2.60;;;;;;;14.47;43.60;98789.44;5021658;28;20425;-72
2023/03/30 10:41:39;;;;;;;9.15;2.55;;;;;;;14.36;43.44;98800.75;5038067;28;20044;-73
2023/03/30 10:44:35;;;;;;;3.15;1.95;;;;;;;14.59;43.20;98790.53;5054345;28;20032;-72
2023/03/30 10:47:31;;;;;;;4.05;2.70;;;;;;;14.72;43.43;98790.50;4992971;28;20044;-72
2023/03/30 10:50:28;;;;;;;4.18;2.20;;;;;;;14.64;42.93;98785.38;5037645;28;20437;-72
2023/03/30 10:53:12;;;;;;;5.32;2.30;;;;;;;14.68;42.26;98794.63;5071742;28;20063;-71
2023/03/30 10:55:41;;;;;;;3.78;2.13;;;;;;;13.92;42.55;98789.69;5021350;28;20378;-72
2023/03/30 10:58:13;;;;;;;6.03;2.30;;;;;;;14.28;43.31;98799.09;5054046;28;20163;-72
2023/03/30 11:00:42;;;;;;;2.33;1.80;;;;;;;13.40;43.10;98796.44;5037776;28;20489;-71
2023/03/30 11:03:18;;;;;;;2.70;1.90;;;;;;;14.15;42.81;98800.84;5037659;28;20394;-71
2023/03/30 11:05:50;;;;;;;2.83;1.92;;;;;;;14.17;42.66;98801.47;5054310;28;20463;-71
2023/03/30 11:08:37;;;;;;;1.60;1.50;;;;;;;14.24;41.99;98797.84;5037578;28;20427;-71
2023/03/30 11:11:03;;;;;;;1.70;1.60;;;;;;;13.87;42.31;98779.59;5052926;28;20040;-71
2023/03/30 11:13:36;;;;;;;2.50;1.80;;;;;;;14.36;41.77;98795.41;5036172;28;20115;-70
2023/03/30 11:16:15;;;;;;;4.00;1.90;;;;;;;14.26;41.84;98792.28;5031633;28;20052;-71
2023/03/30 11:18:48;;;;;;;2.50;1.92;;;;;;;14.36;41.87;98790.06;5015388;28;20044;-71
2023/03/30 11:21:20;;;;;;;7.40;1.77;;;;;;;14.59;41.15;98782.50;5069985;28;21065;-71
2023/03/30 11:24:04;;;;;;;3.50;1.58;;;;;;;14.82;40.44;98790.94;5054321;28;20115;-71
2023/03/30 11:26:39;;;;;;;12.13;2.17;;;;;;;14.87;40.51;98788.47;5057012;28;20064;-71
2023/03/30 11:29:24;;;;;;;2.78;2.10;;;;;;;14.24;40.31;98789.81;5023513;28;20082;-71
2023/03/30 11:31:58;;;;;;;2.55;2.10;;;;;;;14.65;40.24;98800.38;5056422;28;20036;-72
2023/03/30 11:34:45;;;;;;;9.38;2.00;;;;;;;14.43;40.35;98799.75;5057142;28;20126;-72
2023/03/30 11:37:28;;;;;;;7.85;2.13;;;;;;;14.36;41.27;98812.25;5023152;28;20059;-72
2023/03/30 11:40:00;;;;;;;3.25;2.10;;;;;;;13.89;41.29;98798.91;5041208;28;20032;-71
2023/03/30 11:42:29;;;;;;;7.13;2.53;;;;;;;13.92;41.39;98792.34;5024409;28;20190;-72
2023/03/30 11:44:56;;;;;;;4.80;2.25;;;;;;;13.56;41.01;98793.44;5041161;28;20064;-72
2023/03/30 11:47:54;;;;;;;2.92;2.10;;;;;;;13.94;41.21;98798.31;5024712;28;20052;-72
2023/03/30 11:50:34;;;;;;;6.90;2.40;;;;;;;14.03;41.38;98789.13;5042186;28;20078;-72
2023/03/30 11:53:26;;;;;;;6.95;2.83;;;;;;;13.50;41.11;98778.22;5056043;28;20174;-72
2023/03/30 11:56:05;;;;;;;7.18;2.58;;;;;;;14.25;40.77;98788.00;4944685;28;20046;-73
2023/03/30 11:58:42;;;;;;;8.25;2.45;;;;;;;14.09;40.54;98797.16;4976071;28;20050;-72
2023/03/30 12:01:37;;;;;;;5.68;2.70;;;;;;;14.08;40.80;98790.19;4960955;28;20393;-73
2023/03/30 12:04:08;;;;;;;13.88;2.33;;;;;;;13.94;40.52;98779.63;4942289;28;20085;-72
2023/03/30 12:06:38;;;;;;;8.60;3.47;;;;;;;13.93;40.55;98792.16;4957955;28;20117;-74
2023/03/30 12:09:41;;;;;;;5.00;2.50;;;;;;;14.03;40.13;98789.94;4967590;28;20056;-72